sensor_id;sensor_type;location;lat;lon;timestamp;pressure;altitude;pressure_sealevel;temperature;humidity
55347;BME280;41218;55.700;38.270;2023-04-20T00:01:15;100567.56;;;5.01;46.11
55347;BME280;41218;55.700;38.270;2023-04-20T00:06:16;100564.63;;;4.97;45.98
55347;BME280;41218;55.700;38.270;2023-04-20T00:11:17;100553.44;;;4.85;46.00
55347;BME280;41218;55.700;38.270;2023-04-20T00:16:17;100562.91;;;4.79;46.20
55347;BME280;41218;55.700;38.270;2023-04-20T00:21:18;100558.16;;;4.71;46.16
55347;BME280;41218;55.700;38.270;2023-04-20T00:26:23;100527.03;;;4.44;46.18
55347;BME280;41218;55.700;38.270;2023-04-20T00:31:23;100555.28;;;4.53;46.47
55347;BME280;41218;55.700;38.270;2023-04-20T00:36:24;100547.50;;;4.47;46.63
55347;BME280;41218;55.700;38.270;2023-04-20T00:41:24;100548.53;;;4.37;46.51
55347;BME280;41218;55.700;38.270;2023-04-20T00:46:25;100541.56;;;4.31;46.65
55347;BME280;41218;55.700;38.270;2023-04-20T00:51:26;100537.31;;;4.25;46.86
55347;BME280;41218;55.700;38.270;2023-04-20T00:56:27;100535.50;;;4.20;46.84
55347;BME280;41218;55.700;38.270;2023-04-20T01:01:27;100527.41;;;4.15;46.87
55347;BME280;41218;55.700;38.270;2023-04-20T01:06:28;100525.09;;;4.08;47.35
55347;BME280;41218;55.700;38.270;2023-04-20T01:11:29;100517.50;;;4.05;46.95
55347;BME280;41218;55.700;38.270;2023-04-20T01:16:30;100523.69;;;3.97;47.24
55347;BME280;41218;55.700;38.270;2023-04-20T01:21:31;100511.38;;;3.86;47.29
55347;BME280;41218;55.700;38.270;2023-04-20T01:26:31;100521.97;;;3.87;47.54
55347;BME280;41218;55.700;38.270;2023-04-20T01:31:32;100517.72;;;3.81;47.60
55347;BME280;41218;55.700;38.270;2023-04-20T01:36:32;100516.53;;;3.73;47.67
55347;BME280;41218;55.700;38.270;2023-04-20T01:41:33;100517.75;;;3.67;47.89
55347;BME280;41218;55.700;38.270;2023-04-20T01:46:39;100505.63;;;3.59;48.44
55347;BME280;41218;55.700;38.270;2023-04-20T01:51:40;100501.66;;;3.52;48.09
55347;BME280;41218;55.700;38.270;2023-04-20T01:56:40;100505.81;;;3.49;48.03
55347;BME280;41218;55.700;38.270;2023-04-20T02:01:41;100488.41;;;3.45;48.26
55347;BME280;41218;55.700;38.270;2023-04-20T02:06:41;100493.66;;;3.41;48.26
55347;BME280;41218;55.700;38.270;2023-04-20T02:11:42;100494.06;;;3.35;48.47
55347;BME280;41218;55.700;38.270;2023-04-20T02:16:42;100483.53;;;3.28;48.13
55347;BME280;41218;55.700;38.270;2023-04-20T02:21:43;100490.72;;;3.24;48.50
55347;BME280;41218;55.700;38.270;2023-04-20T02:26:43;100482.91;;;3.17;48.74
55347;BME280;41218;55.700;38.270;2023-04-20T02:31:44;100485.25;;;3.10;48.77
55347;BME280;41218;55.700;38.270;2023-04-20T02:36:44;100488.88;;;3.06;49.06
55347;BME280;41218;55.700;38.270;2023-04-20T02:41:45;100495.25;;;3.01;48.84
55347;BME280;41218;55.700;38.270;2023-04-20T02:46:46;100490.38;;;2.98;49.29
55347;BME280;41218;55.700;38.270;2023-04-20T02:51:46;100477.41;;;2.90;49.42
55347;BME280;41218;55.700;38.270;2023-04-20T02:56:46;100483.09;;;2.93;49.43
55347;BME280;41218;55.700;38.270;2023-04-20T03:01:47;100479.03;;;2.91;49.59
55347;BME280;41218;55.700;38.270;2023-04-20T03:06:50;100473.66;;;2.86;49.96
55347;BME280;41218;55.700;38.270;2023-04-20T03:11:51;100469.84;;;2.87;50.16
55347;BME280;41218;55.700;38.270;2023-04-20T03:16:51;100459.91;;;2.77;50.22
55347;BME280;41218;55.700;38.270;2023-04-20T03:21:52;100450.69;;;2.73;50.34
55347;BME280;41218;55.700;38.270;2023-04-20T03:26:52;100462.56;;;2.82;50.45
55347;BME280;41218;55.700;38.270;2023-04-20T03:31:53;100463.66;;;2.81;50.79
55347;BME280;41218;55.700;38.270;2023-04-20T03:36:53;100468.13;;;2.91;51.19
55347;BME280;41218;55.700;38.270;2023-04-20T03:41:54;100461.16;;;2.98;51.04
55347;BME280;41218;55.700;38.270;2023-04-20T03:46:54;100468.88;;;3.10;51.35
55347;BME280;41218;55.700;38.270;2023-04-20T03:51:55;100467.34;;;3.18;51.60
55347;BME280;41218;55.700;38.270;2023-04-20T03:56:55;100462.28;;;3.39;51.81
55347;BME280;41218;55.700;38.270;2023-04-20T04:01:58;100454.16;;;3.61;51.61
55347;BME280;41218;55.700;38.270;2023-04-20T04:06:59;100455.75;;;3.90;50.44
55347;BME280;41218;55.700;38.270;2023-04-20T04:11:59;100452.16;;;4.04;51.50
55347;BME280;41218;55.700;38.270;2023-04-20T04:17:00;100441.34;;;4.21;52.03
55347;BME280;41218;55.700;38.270;2023-04-20T04:22:01;100449.56;;;4.44;51.50
55347;BME280;41218;55.700;38.270;2023-04-20T04:27:01;100432.50;;;4.69;51.50
55347;BME280;41218;55.700;38.270;2023-04-20T04:32:04;100441.69;;;5.05;51.31
55347;BME280;41218;55.700;38.270;2023-04-20T04:37:05;100433.75;;;5.34;50.94
55347;BME280;41218;55.700;38.270;2023-04-20T04:42:05;100429.31;;;5.65;50.82
55347;BME280;41218;55.700;38.270;2023-04-20T04:47:06;100415.28;;;5.83;50.62
55347;BME280;41218;55.700;38.270;2023-04-20T04:52:08;100430.34;;;6.21;50.38
55347;BME280;41218;55.700;38.270;2023-04-20T04:57:09;100434.97;;;6.47;50.16
55347;BME280;41218;55.700;38.270;2023-04-20T05:02:09;100425.41;;;6.70;49.71
55347;BME280;41218;55.700;38.270;2023-04-20T05:07:10;100429.56;;;6.94;49.87
55347;BME280;41218;55.700;38.270;2023-04-20T05:12:10;100422.53;;;7.14;49.16
55347;BME280;41218;55.700;38.270;2023-04-20T05:17:11;100428.88;;;7.35;49.06
55347;BME280;41218;55.700;38.270;2023-04-20T05:22:11;100427.78;;;7.57;49.05
55347;BME280;41218;55.700;38.270;2023-04-20T05:27:12;100429.22;;;7.85;48.33
55347;BME280;41218;55.700;38.270;2023-04-20T05:32:12;100422.72;;;8.10;48.31
55347;BME280;41218;55.700;38.270;2023-04-20T05:37:14;100423.19;;;8.33;47.81
55347;BME280;41218;55.700;38.270;2023-04-20T05:42:14;100414.66;;;8.59;47.31
55347;BME280;41218;55.700;38.270;2023-04-20T05:47:15;100412.09;;;8.88;47.21
55347;BME280;41218;55.700;38.270;2023-04-20T05:52:16;100420.06;;;9.14;46.92
55347;BME280;41218;55.700;38.270;2023-04-20T05:57:16;100422.81;;;9.38;46.24
55347;BME280;41218;55.700;38.270;2023-04-20T06:02:17;100411.66;;;9.59;46.07
55347;BME280;41218;55.700;38.270;2023-04-20T06:07:17;100413.66;;;9.87;45.27
55347;BME280;41218;55.700;38.270;2023-04-20T06:12:18;100415.06;;;10.21;44.82
55347;BME280;41218;55.700;38.270;2023-04-20T06:17:18;100410.72;;;10.49;44.57
55347;BME280;41218;55.700;38.270;2023-04-20T06:22:19;100412.19;;;10.74;44.18
55347;BME280;41218;55.700;38.270;2023-04-20T06:27:19;100411.66;;;11.00;43.74
55347;BME280;41218;55.700;38.270;2023-04-20T06:32:20;100399.25;;;11.26;42.93
55347;BME280;41218;55.700;38.270;2023-04-20T06:37:20;100401.38;;;11.49;42.47
55347;BME280;41218;55.700;38.270;2023-04-20T06:42:21;100401.22;;;11.77;41.49
55347;BME280;41218;55.700;38.270;2023-04-20T06:47:22;100398.50;;;11.96;41.16
55347;BME280;41218;55.700;38.270;2023-04-20T06:52:22;100396.25;;;12.21;40.41
55347;BME280;41218;55.700;38.270;2023-04-20T06:57:23;100393.50;;;12.45;40.27
55347;BME280;41218;55.700;38.270;2023-04-20T07:02:24;100397.06;;;12.65;39.69
55347;BME280;41218;55.700;38.270;2023-04-20T07:07:24;100385.50;;;12.82;39.46
55347;BME280;41218;55.700;38.270;2023-04-20T07:12:25;100373.44;;;12.97;38.88
55347;BME280;41218;55.700;38.270;2023-04-20T07:17:29;100371.38;;;13.14;38.40
55347;BME280;41218;55.700;38.270;2023-04-20T07:22:29;100372.94;;;13.38;38.32
55347;BME280;41218;55.700;38.270;2023-04-20T07:27:37;100383.16;;;13.57;37.37
55347;BME280;41218;55.700;38.270;2023-04-20T07:32:39;100374.66;;;13.76;36.42
55347;BME280;41218;55.700;38.270;2023-04-20T07:37:40;100368.13;;;13.92;36.50
55347;BME280;41218;55.700;38.270;2023-04-20T07:42:41;100356.81;;;14.08;36.13
55347;BME280;41218;55.700;38.270;2023-04-20T07:47:41;100355.78;;;14.23;35.60
55347;BME280;41218;55.700;38.270;2023-04-20T07:52:44;100358.75;;;14.41;35.16
55347;BME280;41218;55.700;38.270;2023-04-20T07:57:44;100340.97;;;14.46;35.01
55347;BME280;41218;55.700;38.270;2023-04-20T08:02:45;100328.44;;;14.62;34.59
55347;BME280;41218;55.700;38.270;2023-04-20T08:07:45;100334.97;;;14.85;33.68
55347;BME280;41218;55.700;38.270;2023-04-20T08:12:46;100334.69;;;14.97;33.34
55347;BME280;41218;55.700;38.270;2023-04-20T08:17:48;100326.78;;;15.06;33.50
55347;BME280;41218;55.700;38.270;2023-04-20T08:22:49;100321.31;;;15.20;33.37
55347;BME280;41218;55.700;38.270;2023-04-20T08:27:50;100327.41;;;15.37;33.46
55347;BME280;41218;55.700;38.270;2023-04-20T08:32:50;100333.44;;;15.50;32.81
55347;BME280;41218;55.700;38.270;2023-04-20T08:37:51;100298.03;;;15.54;32.34
55347;BME280;41218;55.700;38.270;2023-04-20T08:42:51;100317.69;;;15.75;32.32
55347;BME280;41218;55.700;38.270;2023-04-20T08:47:52;100310.94;;;15.87;31.23
55347;BME280;41218;55.700;38.270;2023-04-20T08:52:53;100312.59;;;15.92;30.71
55347;BME280;41218;55.700;38.270;2023-04-20T08:57:54;100312.59;;;16.02;30.65
55347;BME280;41218;55.700;38.270;2023-04-20T09:02:55;100310.22;;;16.01;30.28
55347;BME280;41218;55.700;38.270;2023-04-20T09:07:58;100303.81;;;15.97;29.89
55347;BME280;41218;55.700;38.270;2023-04-20T09:12:59;100301.44;;;15.99;29.78
55347;BME280;41218;55.700;38.270;2023-04-20T09:18:10;100292.66;;;15.90;29.29
55347;BME280;41218;55.700;38.270;2023-04-20T09:23:16;100301.41;;;15.95;29.24
55347;BME280;41218;55.700;38.270;2023-04-20T09:28:16;100305.03;;;15.96;29.55
55347;BME280;41218;55.700;38.270;2023-04-20T09:33:17;100290.28;;;15.95;29.53
55347;BME280;41218;55.700;38.270;2023-04-20T09:38:24;100283.97;;;16.16;30.09
55347;BME280;41218;55.700;38.270;2023-04-20T09:43:26;100281.59;;;16.22;28.69
55347;BME280;41218;55.700;38.270;2023-04-20T09:48:28;100282.34;;;16.12;29.18
55347;BME280;41218;55.700;38.270;2023-04-20T09:53:29;100274.78;;;16.16;29.31
55347;BME280;41218;55.700;38.270;2023-04-20T09:58:31;100257.69;;;16.32;29.19
55347;BME280;41218;55.700;38.270;2023-04-20T10:03:33;100258.50;;;16.50;28.71
55347;BME280;41218;55.700;38.270;2023-04-20T10:08:40;100254.50;;;16.62;26.44
55347;BME280;41218;55.700;38.270;2023-04-20T10:13:41;100240.56;;;16.80;27.85
55347;BME280;41218;55.700;38.270;2023-04-20T10:18:41;100231.38;;;16.90;28.03
55347;BME280;41218;55.700;38.270;2023-04-20T10:23:48;100243.31;;;17.16;26.57
55347;BME280;41218;55.700;38.270;2023-04-20T10:28:49;100236.53;;;17.13;26.92
55347;BME280;41218;55.700;38.270;2023-04-20T10:33:56;100230.13;;;17.20;27.86
55347;BME280;41218;55.700;38.270;2023-04-20T10:38:57;100236.91;;;17.22;27.30
55347;BME280;41218;55.700;38.270;2023-04-20T10:44:06;100230.09;;;17.38;27.73
55347;BME280;41218;55.700;38.270;2023-04-20T10:49:08;100232.84;;;17.41;27.55
55347;BME280;41218;55.700;38.270;2023-04-20T10:54:08;100237.25;;;17.42;27.53
55347;BME280;41218;55.700;38.270;2023-04-20T10:59:11;100217.00;;;17.10;26.82
55347;BME280;41218;55.700;38.270;2023-04-20T11:04:12;100216.63;;;16.86;26.91
55347;BME280;41218;55.700;38.270;2023-04-20T11:09:16;100212.66;;;16.73;26.63
55347;BME280;41218;55.700;38.270;2023-04-20T11:14:20;100214.63;;;16.54;26.97
55347;BME280;41218;55.700;38.270;2023-04-20T11:19:21;100210.66;;;16.52;27.41
55347;BME280;41218;55.700;38.270;2023-04-20T11:24:34;100201.09;;;16.31;27.20
55347;BME280;41218;55.700;38.270;2023-04-20T11:29:38;100193.13;;;16.15;27.08
55347;BME280;41218;55.700;38.270;2023-04-20T11:34:38;100179.97;;;16.09;27.77
55347;BME280;41218;55.700;38.270;2023-04-20T11:39:39;100171.22;;;16.10;27.67
55347;BME280;41218;55.700;38.270;2023-04-20T11:44:40;100170.00;;;16.26;27.51
55347;BME280;41218;55.700;38.270;2023-04-20T11:49:41;100152.88;;;16.31;27.78
55347;BME280;41218;55.700;38.270;2023-04-20T11:54:41;100152.06;;;16.48;27.68
55347;BME280;41218;55.700;38.270;2023-04-20T11:59:42;100144.84;;;16.72;27.08
55347;BME280;41218;55.700;38.270;2023-04-20T12:04:47;100143.66;;;16.88;27.14
55347;BME280;41218;55.700;38.270;2023-04-20T12:09:47;100143.22;;;17.00;27.38
55347;BME280;41218;55.700;38.270;2023-04-20T12:14:48;100125.31;;;16.79;26.93
55347;BME280;41218;55.700;38.270;2023-04-20T12:19:48;100134.50;;;16.87;27.41
55347;BME280;41218;55.700;38.270;2023-04-20T12:24:49;100118.13;;;16.86;26.88
55347;BME280;41218;55.700;38.270;2023-04-20T12:29:50;100110.16;;;16.91;27.20
55347;BME280;41218;55.700;38.270;2023-04-20T12:34:50;100108.53;;;16.87;27.35
55347;BME280;41218;55.700;38.270;2023-04-20T12:39:51;100095.34;;;17.01;27.46
55347;BME280;41218;55.700;38.270;2023-04-20T12:44:52;100094.88;;;17.17;27.36
55347;BME280;41218;55.700;38.270;2023-04-20T12:49:53;100092.03;;;17.21;26.79
55347;BME280;41218;55.700;38.270;2023-04-20T12:54:54;100087.22;;;17.29;27.19
55347;BME280;41218;55.700;38.270;2023-04-20T12:59:54;100085.66;;;17.20;26.67
55347;BME280;41218;55.700;38.270;2023-04-20T13:04:55;100082.41;;;17.29;26.61
55347;BME280;41218;55.700;38.270;2023-04-20T13:09:56;100075.19;;;17.39;26.43
55347;BME280;41218;55.700;38.270;2023-04-20T13:14:56;100070.50;;;17.21;26.88
55347;BME280;41218;55.700;38.270;2023-04-20T13:19:57;100069.28;;;17.22;27.38
55347;BME280;41218;55.700;38.270;2023-04-20T13:24:57;100069.38;;;17.08;27.02
55347;BME280;41218;55.700;38.270;2023-04-20T13:29:58;100064.16;;;17.14;27.24
55347;BME280;41218;55.700;38.270;2023-04-20T13:34:58;100051.66;;;17.40;27.14
55347;BME280;41218;55.700;38.270;2023-04-20T13:39:59;100058.03;;;17.37;27.11
55347;BME280;41218;55.700;38.270;2023-04-20T13:44:59;100047.59;;;17.48;27.06
55347;BME280;41218;55.700;38.270;2023-04-20T13:50:00;100054.41;;;17.43;27.18
55347;BME280;41218;55.700;38.270;2023-04-20T13:55:03;100063.53;;;17.51;26.99
55347;BME280;41218;55.700;38.270;2023-04-20T14:00:05;100070.44;;;17.36;27.36
55347;BME280;41218;55.700;38.270;2023-04-20T14:05:06;100058.56;;;17.17;27.58
55347;BME280;41218;55.700;38.270;2023-04-20T14:10:08;100052.63;;;17.08;27.69
55347;BME280;41218;55.700;38.270;2023-04-20T14:15:09;100059.75;;;17.16;27.87
55347;BME280;41218;55.700;38.270;2023-04-20T14:20:10;100055.03;;;17.06;28.01
55347;BME280;41218;55.700;38.270;2023-04-20T14:25:11;100063.81;;;17.01;27.92
55347;BME280;41218;55.700;38.270;2023-04-20T14:30:12;100059.06;;;16.94;27.94
55347;BME280;41218;55.700;38.270;2023-04-20T14:35:12;100057.91;;;16.77;28.00
55347;BME280;41218;55.700;38.270;2023-04-20T14:40:13;100050.41;;;16.60;28.14
55347;BME280;41218;55.700;38.270;2023-04-20T14:45:14;100059.59;;;16.53;28.36
55347;BME280;41218;55.700;38.270;2023-04-20T14:50:15;100070.34;;;16.55;28.07
55347;BME280;41218;55.700;38.270;2023-04-20T14:55:16;100081.56;;;16.33;28.48
55347;BME280;41218;55.700;38.270;2023-04-20T15:00:17;100073.59;;;16.21;28.32
55347;BME280;41218;55.700;38.270;2023-04-20T15:05:17;100070.41;;;16.19;28.48
55347;BME280;41218;55.700;38.270;2023-04-20T15:10:19;100066.47;;;16.02;29.01
55347;BME280;41218;55.700;38.270;2023-04-20T15:15:20;100065.66;;;15.87;28.88
55347;BME280;41218;55.700;38.270;2023-04-20T15:20:21;100068.06;;;15.81;29.22
55347;BME280;41218;55.700;38.270;2023-04-20T15:25:22;100062.47;;;15.85;29.23
55347;BME280;41218;55.700;38.270;2023-04-20T15:30:22;100064.03;;;15.68;29.46
55347;BME280;41218;55.700;38.270;2023-04-20T15:35:23;100062.81;;;15.58;29.54
55347;BME280;41218;55.700;38.270;2023-04-20T15:40:23;100060.81;;;15.48;29.86
55347;BME280;41218;55.700;38.270;2023-04-20T15:45:24;100064.38;;;15.38;29.97
55347;BME280;41218;55.700;38.270;2023-04-20T15:50:25;100067.56;;;15.29;30.19
55347;BME280;41218;55.700;38.270;2023-04-20T15:55:26;100067.13;;;15.20;30.17
55347;BME280;41218;55.700;38.270;2023-04-20T16:00:27;100068.28;;;15.12;30.41
55347;BME280;41218;55.700;38.270;2023-04-20T16:05:27;100067.88;;;15.06;30.66
55347;BME280;41218;55.700;38.270;2023-04-20T16:10:28;100064.28;;;15.02;31.00
55347;BME280;41218;55.700;38.270;2023-04-20T16:15:29;100058.31;;;14.93;31.13
55347;BME280;41218;55.700;38.270;2023-04-20T16:20:29;100056.28;;;14.82;31.72
55347;BME280;41218;55.700;38.270;2023-04-20T16:25:30;100062.19;;;14.74;32.13
55347;BME280;41218;55.700;38.270;2023-04-20T16:30:33;100061.72;;;14.61;32.44
55347;BME280;41218;55.700;38.270;2023-04-20T16:35:36;100047.72;;;14.47;33.01
55347;BME280;41218;55.700;38.270;2023-04-20T16:40:36;100046.06;;;14.35;33.34
55347;BME280;41218;55.700;38.270;2023-04-20T16:45:37;100048.75;;;14.20;33.79
55347;BME280;41218;55.700;38.270;2023-04-20T16:50:38;100055.13;;;14.25;33.41
55347;BME280;41218;55.700;38.270;2023-04-20T16:55:38;100045.84;;;14.02;34.13
55347;BME280;41218;55.700;38.270;2023-04-20T17:00:39;100049.72;;;13.87;34.31
55347;BME280;41218;55.700;38.270;2023-04-20T17:05:40;100050.00;;;13.71;34.49
55347;BME280;41218;55.700;38.270;2023-04-20T17:10:40;100056.22;;;13.57;34.83
55347;BME280;41218;55.700;38.270;2023-04-20T17:15:41;100050.91;;;13.41;34.93
55347;BME280;41218;55.700;38.270;2023-04-20T17:20:44;100043.13;;;13.20;34.99
55347;BME280;41218;55.700;38.270;2023-04-20T17:25:45;100047.28;;;13.03;35.48
55347;BME280;41218;55.700;38.270;2023-04-20T17:30:46;100051.88;;;12.89;35.66
55347;BME280;41218;55.700;38.270;2023-04-20T17:35:47;100039.31;;;12.65;35.89
55347;BME280;41218;55.700;38.270;2023-04-20T17:40:47;100036.31;;;12.47;36.22
55347;BME280;41218;55.700;38.270;2023-04-20T17:45:48;100055.19;;;12.37;36.31
55347;BME280;41218;55.700;38.270;2023-04-20T17:50:49;100050.72;;;12.29;36.10
55347;BME280;41218;55.700;38.270;2023-04-20T17:55:50;100055.53;;;12.06;36.67
55347;BME280;41218;55.700;38.270;2023-04-20T18:00:50;100051.56;;;11.83;36.87
55347;BME280;41218;55.700;38.270;2023-04-20T18:05:51;100053.25;;;11.65;37.03
55347;BME280;41218;55.700;38.270;2023-04-20T18:10:51;100042.56;;;11.40;37.24
55347;BME280;41218;55.700;38.270;2023-04-20T18:15:52;100060.69;;;11.38;37.26
55347;BME280;41218;55.700;38.270;2023-04-20T18:20:52;100057.25;;;11.21;37.50
55347;BME280;41218;55.700;38.270;2023-04-20T18:25:53;100061.75;;;11.10;37.86
55347;BME280;41218;55.700;38.270;2023-04-20T18:30:53;100052.03;;;10.97;37.78
55347;BME280;41218;55.700;38.270;2023-04-20T18:35:54;100046.56;;;10.81;38.15
55347;BME280;41218;55.700;38.270;2023-04-20T18:40:55;100043.88;;;10.65;38.39
55347;BME280;41218;55.700;38.270;2023-04-20T18:45:56;100047.94;;;10.52;38.71
55347;BME280;41218;55.700;38.270;2023-04-20T18:50:56;100053.16;;;10.37;38.78
55347;BME280;41218;55.700;38.270;2023-04-20T18:55:59;100046.03;;;10.20;39.10
55347;BME280;41218;55.700;38.270;2023-04-20T19:01:01;100047.22;;;10.03;39.44
55347;BME280;41218;55.700;38.270;2023-04-20T19:06:02;100046.34;;;9.99;38.78
55347;BME280;41218;55.700;38.270;2023-04-20T19:11:03;100042.72;;;9.79;39.31
55347;BME280;41218;55.700;38.270;2023-04-20T19:16:03;100038.69;;;9.61;39.56
55347;BME280;41218;55.700;38.270;2023-04-20T19:21:05;100041.94;;;9.47;39.85
55347;BME280;41218;55.700;38.270;2023-04-20T19:26:06;100042.00;;;9.35;39.98
55347;BME280;41218;55.700;38.270;2023-04-20T19:31:06;100045.97;;;9.21;40.19
55347;BME280;41218;55.700;38.270;2023-04-20T19:36:08;100050.06;;;9.12;40.13
55347;BME280;41218;55.700;38.270;2023-04-20T19:41:09;100053.31;;;9.01;40.44
55347;BME280;41218;55.700;38.270;2023-04-20T19:46:09;100057.75;;;8.90;40.62
55347;BME280;41218;55.700;38.270;2023-04-20T19:51:10;100059.59;;;8.58;41.60
55347;BME280;41218;55.700;38.270;2023-04-20T19:56:11;100055.25;;;8.45;41.50
55347;BME280;41218;55.700;38.270;2023-04-20T20:01:11;100066.13;;;8.29;41.75
55347;BME280;41218;55.700;38.270;2023-04-20T20:06:12;100061.00;;;8.15;42.16
55347;BME280;41218;55.700;38.270;2023-04-20T20:11:12;100060.00;;;8.07;42.18
55347;BME280;41218;55.700;38.270;2023-04-20T20:16:13;100056.53;;;7.98;42.82
55347;BME280;41218;55.700;38.270;2023-04-20T20:21:15;100051.16;;;7.89;42.67
55347;BME280;41218;55.700;38.270;2023-04-20T20:26:16;100050.34;;;7.76;43.02
55347;BME280;41218;55.700;38.270;2023-04-20T20:31:16;100052.88;;;7.69;43.48
55347;BME280;41218;55.700;38.270;2023-04-20T20:36:17;100048.28;;;7.61;43.59
55347;BME280;41218;55.700;38.270;2023-04-20T20:41:19;100055.81;;;7.52;43.59
55347;BME280;41218;55.700;38.270;2023-04-20T20:46:19;100066.25;;;7.46;43.56
55347;BME280;41218;55.700;38.270;2023-04-20T20:51:20;100054.22;;;7.38;44.07
55347;BME280;41218;55.700;38.270;2023-04-20T20:56:20;100057.41;;;7.28;43.84
55347;BME280;41218;55.700;38.270;2023-04-20T21:01:22;100035.13;;;7.09;44.36
55347;BME280;41218;55.700;38.270;2023-04-20T21:06:22;100042.91;;;7.07;44.66
55347;BME280;41218;55.700;38.270;2023-04-20T21:11:23;100037.28;;;7.03;44.56
55347;BME280;41218;55.700;38.270;2023-04-20T21:16:23;100036.56;;;6.94;44.65
55347;BME280;41218;55.700;38.270;2023-04-20T21:21:24;100022.09;;;6.85;44.75
55347;BME280;41218;55.700;38.270;2023-04-20T21:26:24;100016.38;;;6.77;44.99
55347;BME280;41218;55.700;38.270;2023-04-20T21:31:25;100015.28;;;6.70;45.08
55347;BME280;41218;55.700;38.270;2023-04-20T21:36:25;100015.38;;;6.61;45.08
55347;BME280;41218;55.700;38.270;2023-04-20T21:41:27;100008.53;;;6.46;45.08
55347;BME280;41218;55.700;38.270;2023-04-20T21:46:28;99999.44;;;6.33;45.47
55347;BME280;41218;55.700;38.270;2023-04-20T21:51:29;100012.03;;;6.34;45.28
55347;BME280;41218;55.700;38.270;2023-04-20T21:56:30;100010.44;;;6.33;44.94
55347;BME280;41218;55.700;38.270;2023-04-20T22:01:31;100011.63;;;6.24;45.30
55347;BME280;41218;55.700;38.270;2023-04-20T22:06:31;100018.31;;;6.14;45.36
55347;BME280;41218;55.700;38.270;2023-04-20T22:11:32;100012.09;;;6.05;45.50
55347;BME280;41218;55.700;38.270;2023-04-20T22:16:35;100003.28;;;5.90;45.43
55347;BME280;41218;55.700;38.270;2023-04-20T22:21:36;99999.91;;;5.85;45.87
55347;BME280;41218;55.700;38.270;2023-04-20T22:26:37;99994.00;;;5.74;45.79
55347;BME280;41218;55.700;38.270;2023-04-20T22:31:37;99997.09;;;5.72;45.98
55347;BME280;41218;55.700;38.270;2023-04-20T22:36:38;99996.47;;;5.67;45.92
55347;BME280;41218;55.700;38.270;2023-04-20T22:41:39;99988.13;;;5.54;46.17
55347;BME280;41218;55.700;38.270;2023-04-20T22:46:39;99988.50;;;5.44;46.07
55347;BME280;41218;55.700;38.270;2023-04-20T22:51:40;99985.81;;;5.35;45.76
55347;BME280;41218;55.700;38.270;2023-04-20T22:56:40;99984.50;;;5.33;45.91
55347;BME280;41218;55.700;38.270;2023-04-20T23:01:41;99985.34;;;5.25;46.11
55347;BME280;41218;55.700;38.270;2023-04-20T23:06:42;99983.13;;;5.18;46.37
55347;BME280;41218;55.700;38.270;2023-04-20T23:11:43;99981.22;;;5.10;46.64
55347;BME280;41218;55.700;38.270;2023-04-20T23:16:46;99972.09;;;4.97;46.74
55347;BME280;41218;55.700;38.270;2023-04-20T23:21:46;99977.25;;;4.90;46.88
55347;BME280;41218;55.700;38.270;2023-04-20T23:26:47;99967.91;;;4.82;46.81
55347;BME280;41218;55.700;38.270;2023-04-20T23:31:47;99950.88;;;4.68;47.20
55347;BME280;41218;55.700;38.270;2023-04-20T23:36:48;99962.50;;;4.65;47.47
55347;BME280;41218;55.700;38.270;2023-04-20T23:41:49;99967.00;;;4.60;46.70
55347;BME280;41218;55.700;38.270;2023-04-20T23:46:50;99958.97;;;4.47;47.44
55347;BME280;41218;55.700;38.270;2023-04-20T23:51:50;99960.56;;;4.39;47.61
55347;BME280;41218;55.700;38.270;2023-04-20T23:56:51;99959.63;;;4.35;47.87
